sensor_id;sensor_type;location;lat;lon;timestamp;P1;durP1;ratioP1;P2;durP2;ratioP2
24613;SDS011;12760;46.296;25.290;2023-02-21T00:00:52;3.53;;;3.20;;
24613;SDS011;12760;46.296;25.290;2023-02-21T00:03:36;4.23;;;4.03;;
24613;SDS011;12760;46.296;25.290;2023-02-21T00:06:20;4.17;;;3.97;;
24613;SDS011;12760;46.296;25.290;2023-02-21T00:09:04;4.40;;;4.00;;
24613;SDS011;12760;46.296;25.290;2023-02-21T00:11:48;2.07;;;2.07;;
24613;SDS011;12760;46.296;25.290;2023-02-21T00:14:32;2.00;;;2.00;;
24613;SDS011;12760;46.296;25.290;2023-02-21T00:17:16;1.83;;;1.80;;
24613;SDS011;12760;46.296;25.290;2023-02-21T00:20:01;3.03;;;2.83;;
24613;SDS011;12760;46.296;25.290;2023-02-21T00:22:45;2.50;;;2.40;;
24613;SDS011;12760;46.296;25.290;2023-02-21T00:25:29;2.30;;;2.23;;
24613;SDS011;12760;46.296;25.290;2023-02-21T00:28:13;2.70;;;2.60;;
24613;SDS011;12760;46.296;25.290;2023-02-21T00:30:57;1.47;;;1.47;;
24613;SDS011;12760;46.296;25.290;2023-02-21T00:33:41;1.60;;;1.60;;
24613;SDS011;12760;46.296;25.290;2023-02-21T00:36:25;6.30;;;3.60;;
24613;SDS011;12760;46.296;25.290;2023-02-21T00:39:09;2.33;;;2.33;;
24613;SDS011;12760;46.296;25.290;2023-02-21T00:41:53;6.10;;;3.07;;
24613;SDS011;12760;46.296;25.290;2023-02-21T00:44:37;1.37;;;1.37;;
24613;SDS011;12760;46.296;25.290;2023-02-21T00:47:21;2.43;;;2.33;;
24613;SDS011;12760;46.296;25.290;2023-02-21T00:50:05;2.20;;;2.13;;
24613;SDS011;12760;46.296;25.290;2023-02-21T00:52:49;2.93;;;2.83;;
24613;SDS011;12760;46.296;25.290;2023-02-21T00:55:33;2.50;;;2.40;;
24613;SDS011;12760;46.296;25.290;2023-02-21T00:58:20;2.10;;;2.10;;
24613;SDS011;12760;46.296;25.290;2023-02-21T01:01:05;3.40;;;3.10;;
24613;SDS011;12760;46.296;25.290;2023-02-21T01:03:48;1.50;;;1.50;;
24613;SDS011;12760;46.296;25.290;2023-02-21T01:06:32;2.63;;;2.53;;
24613;SDS011;12760;46.296;25.290;2023-02-21T01:09:17;2.10;;;2.10;;
24613;SDS011;12760;46.296;25.290;2023-02-21T01:12:01;1.73;;;1.73;;
24613;SDS011;12760;46.296;25.290;2023-02-21T01:14:45;2.03;;;2.03;;
24613;SDS011;12760;46.296;25.290;2023-02-21T01:17:29;2.73;;;2.63;;
24613;SDS011;12760;46.296;25.290;2023-02-21T01:20:13;2.70;;;2.60;;
24613;SDS011;12760;46.296;25.290;2023-02-21T01:22:57;2.63;;;2.53;;
24613;SDS011;12760;46.296;25.290;2023-02-21T01:25:41;1.50;;;1.50;;
24613;SDS011;12760;46.296;25.290;2023-02-21T01:28:25;2.07;;;2.07;;
24613;SDS011;12760;46.296;25.290;2023-02-21T01:31:09;1.37;;;1.37;;
24613;SDS011;12760;46.296;25.290;2023-02-21T01:33:53;7.87;;;2.17;;
24613;SDS011;12760;46.296;25.290;2023-02-21T01:36:41;2.23;;;2.13;;
24613;SDS011;12760;46.296;25.290;2023-02-21T01:39:25;2.13;;;2.13;;
24613;SDS011;12760;46.296;25.290;2023-02-21T01:42:09;2.03;;;1.97;;
24613;SDS011;12760;46.296;25.290;2023-02-21T01:48:17;2.03;;;2.03;;
24613;SDS011;12760;46.296;25.290;2023-02-21T01:51:05;1.63;;;1.63;;
24613;SDS011;12760;46.296;25.290;2023-02-21T01:53:52;2.67;;;2.57;;
24613;SDS011;12760;46.296;25.290;2023-02-21T01:56:38;2.50;;;2.40;;
24613;SDS011;12760;46.296;25.290;2023-02-21T01:59:22;2.30;;;2.30;;
24613;SDS011;12760;46.296;25.290;2023-02-21T02:02:11;1.70;;;1.70;;
24613;SDS011;12760;46.296;25.290;2023-02-21T02:05:16;6.73;;;3.40;;
24613;SDS011;12760;46.296;25.290;2023-02-21T02:08:01;1.43;;;1.43;;
24613;SDS011;12760;46.296;25.290;2023-02-21T02:10:45;1.77;;;1.77;;
24613;SDS011;12760;46.296;25.290;2023-02-21T02:14:39;1.97;;;1.97;;
24613;SDS011;12760;46.296;25.290;2023-02-21T02:16:44;1.63;;;1.63;;
24613;SDS011;12760;46.296;25.290;2023-02-21T02:25:08;1.80;;;1.80;;
24613;SDS011;12760;46.296;25.290;2023-02-21T02:27:50;2.50;;;2.30;;
24613;SDS011;12760;46.296;25.290;2023-02-21T02:33:30;1.90;;;1.90;;
24613;SDS011;12760;46.296;25.290;2023-02-21T02:39:10;2.90;;;2.80;;
24613;SDS011;12760;46.296;25.290;2023-02-21T02:41:51;2.20;;;2.10;;
24613;SDS011;12760;46.296;25.290;2023-02-21T02:44:40;1.27;;;1.27;;
24613;SDS011;12760;46.296;25.290;2023-02-21T02:47:14;1.97;;;1.93;;
24613;SDS011;12760;46.296;25.290;2023-02-21T02:49:47;3.17;;;3.07;;
24613;SDS011;12760;46.296;25.290;2023-02-21T02:52:16;4.77;;;4.13;;
24613;SDS011;12760;46.296;25.290;2023-02-21T02:54:41;2.63;;;2.53;;
24613;SDS011;12760;46.296;25.290;2023-02-21T02:57:08;2.33;;;2.23;;
24613;SDS011;12760;46.296;25.290;2023-02-21T02:59:38;3.83;;;3.63;;
24613;SDS011;12760;46.296;25.290;2023-02-21T03:02:20;2.07;;;2.07;;
24613;SDS011;12760;46.296;25.290;2023-02-21T03:18:23;3.13;;;2.97;;
24613;SDS011;12760;46.296;25.290;2023-02-21T03:21:02;3.03;;;2.93;;
24613;SDS011;12760;46.296;25.290;2023-02-21T03:23:33;2.33;;;2.23;;
24613;SDS011;12760;46.296;25.290;2023-02-21T03:26:03;1.90;;;1.90;;
24613;SDS011;12760;46.296;25.290;2023-02-21T03:28:32;3.53;;;3.23;;
24613;SDS011;12760;46.296;25.290;2023-02-21T03:30:59;2.73;;;2.63;;
24613;SDS011;12760;46.296;25.290;2023-02-21T03:33:28;3.43;;;3.13;;
24613;SDS011;12760;46.296;25.290;2023-02-21T03:35:53;5.77;;;5.33;;
24613;SDS011;12760;46.296;25.290;2023-02-21T03:38:22;2.67;;;2.57;;
24613;SDS011;12760;46.296;25.290;2023-02-21T03:40:48;1.83;;;1.83;;
24613;SDS011;12760;46.296;25.290;2023-02-21T03:43:13;3.47;;;3.27;;
24613;SDS011;12760;46.296;25.290;2023-02-21T03:45:39;1.80;;;1.80;;
24613;SDS011;12760;46.296;25.290;2023-02-21T03:48:05;4.13;;;4.00;;
24613;SDS011;12760;46.296;25.290;2023-02-21T03:50:31;2.93;;;2.83;;
24613;SDS011;12760;46.296;25.290;2023-02-21T03:52:56;3.00;;;2.40;;
24613;SDS011;12760;46.296;25.290;2023-02-21T03:55:23;3.10;;;3.00;;
24613;SDS011;12760;46.296;25.290;2023-02-21T03:57:48;3.90;;;3.70;;
24613;SDS011;12760;46.296;25.290;2023-02-21T04:00:14;2.07;;;2.07;;
24613;SDS011;12760;46.296;25.290;2023-02-21T04:02:40;4.60;;;4.40;;
24613;SDS011;12760;46.296;25.290;2023-02-21T04:05:06;2.83;;;2.73;;
24613;SDS011;12760;46.296;25.290;2023-02-21T04:07:32;4.57;;;4.37;;
24613;SDS011;12760;46.296;25.290;2023-02-21T04:09:58;2.43;;;2.43;;
24613;SDS011;12760;46.296;25.290;2023-02-21T04:12:24;3.20;;;3.10;;
24613;SDS011;12760;46.296;25.290;2023-02-21T04:14:50;3.47;;;3.37;;
24613;SDS011;12760;46.296;25.290;2023-02-21T04:17:20;2.10;;;2.10;;
24613;SDS011;12760;46.296;25.290;2023-02-21T04:19:46;2.30;;;2.23;;
24613;SDS011;12760;46.296;25.290;2023-02-21T04:22:12;11.03;;;6.40;;
24613;SDS011;12760;46.296;25.290;2023-02-21T04:24:37;4.33;;;4.17;;
24613;SDS011;12760;46.296;25.290;2023-02-21T04:27:03;1.93;;;1.93;;
24613;SDS011;12760;46.296;25.290;2023-02-21T04:29:29;4.67;;;4.47;;
24613;SDS011;12760;46.296;25.290;2023-02-21T04:31:55;2.10;;;2.10;;
24613;SDS011;12760;46.296;25.290;2023-02-21T04:34:21;2.57;;;2.47;;
24613;SDS011;12760;46.296;25.290;2023-02-21T04:36:47;3.00;;;2.77;;
24613;SDS011;12760;46.296;25.290;2023-02-21T04:39:12;5.73;;;4.10;;
24613;SDS011;12760;46.296;25.290;2023-02-21T04:41:39;3.90;;;3.60;;
24613;SDS011;12760;46.296;25.290;2023-02-21T04:44:05;2.87;;;2.73;;
24613;SDS011;12760;46.296;25.290;2023-02-21T04:46:30;4.97;;;4.73;;
24613;SDS011;12760;46.296;25.290;2023-02-21T04:48:56;2.67;;;2.57;;
24613;SDS011;12760;46.296;25.290;2023-02-21T04:51:23;1.60;;;1.60;;
24613;SDS011;12760;46.296;25.290;2023-02-21T04:53:49;1.73;;;1.73;;
24613;SDS011;12760;46.296;25.290;2023-02-21T04:56:19;5.07;;;4.70;;
24613;SDS011;12760;46.296;25.290;2023-02-21T04:58:47;4.33;;;4.07;;
24613;SDS011;12760;46.296;25.290;2023-02-21T05:01:14;3.53;;;3.33;;
24613;SDS011;12760;46.296;25.290;2023-02-21T05:03:40;3.00;;;2.83;;
24613;SDS011;12760;46.296;25.290;2023-02-21T05:06:06;3.17;;;3.07;;
24613;SDS011;12760;46.296;25.290;2023-02-21T05:08:32;3.60;;;3.30;;
24613;SDS011;12760;46.296;25.290;2023-02-21T05:10:57;3.33;;;3.07;;
24613;SDS011;12760;46.296;25.290;2023-02-21T05:13:23;6.77;;;4.87;;
24613;SDS011;12760;46.296;25.290;2023-02-21T05:15:49;4.77;;;4.57;;
24613;SDS011;12760;46.296;25.290;2023-02-21T05:18:15;12.27;;;6.80;;
24613;SDS011;12760;46.296;25.290;2023-02-21T05:20:48;12.17;;;11.20;;
24613;SDS011;12760;46.296;25.290;2023-02-21T05:23:14;7.57;;;6.87;;
24613;SDS011;12760;46.296;25.290;2023-02-21T05:25:41;5.90;;;5.50;;
24613;SDS011;12760;46.296;25.290;2023-02-21T05:28:07;4.13;;;4.03;;
24613;SDS011;12760;46.296;25.290;2023-02-21T05:30:33;5.90;;;5.03;;
24613;SDS011;12760;46.296;25.290;2023-02-21T05:32:59;4.90;;;4.60;;
24613;SDS011;12760;46.296;25.290;2023-02-21T05:35:25;5.37;;;5.03;;
24613;SDS011;12760;46.296;25.290;2023-02-21T05:37:51;4.50;;;4.07;;
24613;SDS011;12760;46.296;25.290;2023-02-21T05:40:16;8.23;;;7.67;;
24613;SDS011;12760;46.296;25.290;2023-02-21T05:42:43;4.40;;;4.20;;
24613;SDS011;12760;46.296;25.290;2023-02-21T05:45:09;5.37;;;5.13;;
24613;SDS011;12760;46.296;25.290;2023-02-21T05:47:35;4.23;;;4.00;;
24613;SDS011;12760;46.296;25.290;2023-02-21T05:50:01;7.87;;;4.13;;
24613;SDS011;12760;46.296;25.290;2023-02-21T05:52:28;4.50;;;4.30;;
24613;SDS011;12760;46.296;25.290;2023-02-21T05:54:54;6.50;;;6.00;;
24613;SDS011;12760;46.296;25.290;2023-02-21T05:57:20;5.63;;;5.40;;
24613;SDS011;12760;46.296;25.290;2023-02-21T05:59:46;8.00;;;6.23;;
24613;SDS011;12760;46.296;25.290;2023-02-21T06:02:14;3.87;;;3.77;;
24613;SDS011;12760;46.296;25.290;2023-02-21T06:04:40;4.30;;;4.20;;
24613;SDS011;12760;46.296;25.290;2023-02-21T06:07:06;4.73;;;4.43;;
24613;SDS011;12760;46.296;25.290;2023-02-21T06:09:32;3.93;;;3.73;;
24613;SDS011;12760;46.296;25.290;2023-02-21T06:11:58;4.33;;;4.13;;
24613;SDS011;12760;46.296;25.290;2023-02-21T06:14:23;4.47;;;4.27;;
24613;SDS011;12760;46.296;25.290;2023-02-21T06:16:50;6.00;;;3.77;;
24613;SDS011;12760;46.296;25.290;2023-02-21T06:19:16;9.50;;;7.10;;
24613;SDS011;12760;46.296;25.290;2023-02-21T06:21:42;7.50;;;7.07;;
24613;SDS011;12760;46.296;25.290;2023-02-21T06:24:10;6.80;;;6.20;;
24613;SDS011;12760;46.296;25.290;2023-02-21T06:26:36;6.90;;;6.43;;
24613;SDS011;12760;46.296;25.290;2023-02-21T06:29:02;8.50;;;7.73;;
24613;SDS011;12760;46.296;25.290;2023-02-21T06:31:29;6.17;;;5.70;;
24613;SDS011;12760;46.296;25.290;2023-02-21T06:33:55;11.87;;;10.53;;
24613;SDS011;12760;46.296;25.290;2023-02-21T06:36:22;5.43;;;5.10;;
24613;SDS011;12760;46.296;25.290;2023-02-21T06:38:49;17.43;;;8.13;;
24613;SDS011;12760;46.296;25.290;2023-02-21T06:41:19;6.33;;;5.90;;
24613;SDS011;12760;46.296;25.290;2023-02-21T06:43:54;14.43;;;7.27;;
24613;SDS011;12760;46.296;25.290;2023-02-21T06:46:22;7.43;;;6.87;;
24613;SDS011;12760;46.296;25.290;2023-02-21T06:48:49;9.03;;;8.43;;
24613;SDS011;12760;46.296;25.290;2023-02-21T06:51:15;8.87;;;8.20;;
24613;SDS011;12760;46.296;25.290;2023-02-21T06:53:42;5.67;;;5.37;;
24613;SDS011;12760;46.296;25.290;2023-02-21T06:56:09;5.67;;;5.30;;
24613;SDS011;12760;46.296;25.290;2023-02-21T06:58:35;12.33;;;5.97;;
24613;SDS011;12760;46.296;25.290;2023-02-21T07:01:01;10.00;;;9.20;;
24613;SDS011;12760;46.296;25.290;2023-02-21T07:03:27;5.63;;;5.10;;
24613;SDS011;12760;46.296;25.290;2023-02-21T07:05:53;6.83;;;6.37;;
24613;SDS011;12760;46.296;25.290;2023-02-21T07:08:19;5.83;;;5.53;;
24613;SDS011;12760;46.296;25.290;2023-02-21T07:10:45;10.27;;;7.37;;
24613;SDS011;12760;46.296;25.290;2023-02-21T07:13:12;9.17;;;8.27;;
24613;SDS011;12760;46.296;25.290;2023-02-21T07:15:37;7.27;;;6.67;;
24613;SDS011;12760;46.296;25.290;2023-02-21T07:18:03;15.07;;;12.17;;
24613;SDS011;12760;46.296;25.290;2023-02-21T07:20:29;15.60;;;10.37;;
24613;SDS011;12760;46.296;25.290;2023-02-21T07:22:57;9.63;;;9.13;;
24613;SDS011;12760;46.296;25.290;2023-02-21T07:25:23;14.60;;;13.13;;
24613;SDS011;12760;46.296;25.290;2023-02-21T07:27:48;10.17;;;9.30;;
24613;SDS011;12760;46.296;25.290;2023-02-21T07:30:16;8.10;;;7.27;;
24613;SDS011;12760;46.296;25.290;2023-02-21T07:32:42;7.40;;;6.73;;
24613;SDS011;12760;46.296;25.290;2023-02-21T07:35:08;6.93;;;6.57;;
24613;SDS011;12760;46.296;25.290;2023-02-21T07:37:34;8.23;;;7.73;;
24613;SDS011;12760;46.296;25.290;2023-02-21T07:39:59;10.37;;;9.47;;
24613;SDS011;12760;46.296;25.290;2023-02-21T07:42:25;20.87;;;8.10;;
24613;SDS011;12760;46.296;25.290;2023-02-21T07:44:55;6.70;;;5.07;;
24613;SDS011;12760;46.296;25.290;2023-02-21T07:47:21;3.80;;;3.60;;
24613;SDS011;12760;46.296;25.290;2023-02-21T07:49:48;3.40;;;3.20;;
24613;SDS011;12760;46.296;25.290;2023-02-21T07:52:14;3.83;;;3.73;;
24613;SDS011;12760;46.296;25.290;2023-02-21T07:54:39;3.70;;;3.43;;
24613;SDS011;12760;46.296;25.290;2023-02-21T07:57:05;3.17;;;3.07;;
24613;SDS011;12760;46.296;25.290;2023-02-21T07:59:31;3.10;;;2.90;;
24613;SDS011;12760;46.296;25.290;2023-02-21T08:01:57;2.40;;;2.30;;
24613;SDS011;12760;46.296;25.290;2023-02-21T08:04:23;1.70;;;1.70;;
24613;SDS011;12760;46.296;25.290;2023-02-21T08:06:49;1.57;;;1.57;;
24613;SDS011;12760;46.296;25.290;2023-02-21T08:09:15;3.37;;;2.80;;
24613;SDS011;12760;46.296;25.290;2023-02-21T08:11:41;3.00;;;2.90;;
24613;SDS011;12760;46.296;25.290;2023-02-21T08:14:07;2.50;;;2.40;;
24613;SDS011;12760;46.296;25.290;2023-02-21T08:16:32;1.63;;;1.63;;
24613;SDS011;12760;46.296;25.290;2023-02-21T08:18:58;2.63;;;2.50;;
24613;SDS011;12760;46.296;25.290;2023-02-21T08:21:24;1.80;;;1.80;;
24613;SDS011;12760;46.296;25.290;2023-02-21T08:23:53;3.67;;;2.53;;
24613;SDS011;12760;46.296;25.290;2023-02-21T08:26:20;2.00;;;2.00;;
24613;SDS011;12760;46.296;25.290;2023-02-21T08:28:46;3.00;;;2.80;;
24613;SDS011;12760;46.296;25.290;2023-02-21T08:31:12;3.80;;;3.67;;
24613;SDS011;12760;46.296;25.290;2023-02-21T08:33:38;2.50;;;2.40;;
24613;SDS011;12760;46.296;25.290;2023-02-21T08:36:04;2.27;;;2.17;;
24613;SDS011;12760;46.296;25.290;2023-02-21T08:38:30;1.77;;;1.77;;
24613;SDS011;12760;46.296;25.290;2023-02-21T08:40:56;1.87;;;1.77;;
24613;SDS011;12760;46.296;25.290;2023-02-21T08:43:22;1.63;;;1.63;;
24613;SDS011;12760;46.296;25.290;2023-02-21T08:45:49;21.90;;;3.30;;
24613;SDS011;12760;46.296;25.290;2023-02-21T08:48:14;6.00;;;4.73;;
24613;SDS011;12760;46.296;25.290;2023-02-21T08:50:40;4.57;;;4.23;;
24613;SDS011;12760;46.296;25.290;2023-02-21T08:53:06;1.70;;;1.70;;
24613;SDS011;12760;46.296;25.290;2023-02-21T08:55:32;3.00;;;2.80;;
24613;SDS011;12760;46.296;25.290;2023-02-21T08:57:58;1.73;;;1.73;;
24613;SDS011;12760;46.296;25.290;2023-02-21T09:00:24;1.60;;;1.60;;
24613;SDS011;12760;46.296;25.290;2023-02-21T09:02:53;1.63;;;1.63;;
24613;SDS011;12760;46.296;25.290;2023-02-21T09:05:23;1.50;;;1.50;;
24613;SDS011;12760;46.296;25.290;2023-02-21T09:07:51;1.87;;;1.80;;
24613;SDS011;12760;46.296;25.290;2023-02-21T09:10:22;2.00;;;1.95;;
24613;SDS011;12760;46.296;25.290;2023-02-21T09:12:49;2.30;;;2.20;;
24613;SDS011;12760;46.296;25.290;2023-02-21T09:15:15;1.30;;;1.30;;
24613;SDS011;12760;46.296;25.290;2023-02-21T09:17:41;2.50;;;2.40;;
24613;SDS011;12760;46.296;25.290;2023-02-21T09:20:08;1.40;;;1.40;;
24613;SDS011;12760;46.296;25.290;2023-02-21T09:22:37;34.58;;;4.05;;
24613;SDS011;12760;46.296;25.290;2023-02-21T09:25:06;2.77;;;2.57;;
24613;SDS011;12760;46.296;25.290;2023-02-21T09:27:36;5.57;;;5.18;;
24613;SDS011;12760;46.296;25.290;2023-02-21T09:30:06;53.85;;;9.20;;
24613;SDS011;12760;46.296;25.290;2023-02-21T09:32:34;2.63;;;2.42;;
24613;SDS011;12760;46.296;25.290;2023-02-21T09:35:00;3.97;;;3.53;;
24613;SDS011;12760;46.296;25.290;2023-02-21T09:37:26;1.70;;;1.70;;
24613;SDS011;12760;46.296;25.290;2023-02-21T09:39:52;1.00;;;1.00;;
24613;SDS011;12760;46.296;25.290;2023-02-21T09:42:18;2.17;;;2.10;;
24613;SDS011;12760;46.296;25.290;2023-02-21T09:44:48;2.88;;;2.78;;
24613;SDS011;12760;46.296;25.290;2023-02-21T09:47:23;1.80;;;1.70;;
24613;SDS011;12760;46.296;25.290;2023-02-21T09:50:02;23.13;;;5.45;;
24613;SDS011;12760;46.296;25.290;2023-02-21T09:52:34;3.05;;;2.83;;
24613;SDS011;12760;46.296;25.290;2023-02-21T09:55:04;1.50;;;1.50;;
24613;SDS011;12760;46.296;25.290;2023-02-21T09:57:36;2.95;;;2.85;;
24613;SDS011;12760;46.296;25.290;2023-02-21T10:00:05;5.97;;;3.33;;
24613;SDS011;12760;46.296;25.290;2023-02-21T10:05:38;5.20;;;4.07;;
24613;SDS011;12760;46.296;25.290;2023-02-21T10:08:11;1.42;;;1.42;;
24613;SDS011;12760;46.296;25.290;2023-02-21T10:10:55;3.50;;;3.30;;
24613;SDS011;12760;46.296;25.290;2023-02-21T10:13:40;3.17;;;3.08;;
24613;SDS011;12760;46.296;25.290;2023-02-21T10:16:16;4.65;;;4.40;;
24613;SDS011;12760;46.296;25.290;2023-02-21T10:21:28;10.88;;;6.80;;
24613;SDS011;12760;46.296;25.290;2023-02-21T10:23:59;5.15;;;4.40;;
24613;SDS011;12760;46.296;25.290;2023-02-21T10:26:31;14.25;;;4.10;;
24613;SDS011;12760;46.296;25.290;2023-02-21T10:29:01;1.38;;;1.38;;
24613;SDS011;12760;46.296;25.290;2023-02-21T10:31:31;2.97;;;2.75;;
24613;SDS011;12760;46.296;25.290;2023-02-21T10:34:02;1.73;;;1.73;;
24613;SDS011;12760;46.296;25.290;2023-02-21T10:36:31;1.48;;;1.48;;
24613;SDS011;12760;46.296;25.290;2023-02-21T10:39:02;4.20;;;3.90;;
24613;SDS011;12760;46.296;25.290;2023-02-21T10:41:33;2.20;;;1.85;;
24613;SDS011;12760;46.296;25.290;2023-02-21T10:44:13;7.50;;;3.95;;
24613;SDS011;12760;46.296;25.290;2023-02-21T10:46:51;1.83;;;1.83;;
24613;SDS011;12760;46.296;25.290;2023-02-21T10:49:27;1.77;;;1.73;;
24613;SDS011;12760;46.296;25.290;2023-02-21T10:52:04;2.13;;;2.13;;
24613;SDS011;12760;46.296;25.290;2023-02-21T10:54:32;5.03;;;4.75;;
24613;SDS011;12760;46.296;25.290;2023-02-21T10:56:58;5.95;;;5.53;;
24613;SDS011;12760;46.296;25.290;2023-02-21T10:59:27;1.35;;;1.35;;
24613;SDS011;12760;46.296;25.290;2023-02-21T11:01:56;3.08;;;2.90;;
24613;SDS011;12760;46.296;25.290;2023-02-21T11:04:24;2.33;;;2.25;;
24613;SDS011;12760;46.296;25.290;2023-02-21T11:07:08;4.53;;;4.22;;
24613;SDS011;12760;46.296;25.290;2023-02-21T11:09:39;2.67;;;2.58;;
24613;SDS011;12760;46.296;25.290;2023-02-21T11:17:20;1.23;;;1.23;;
24613;SDS011;12760;46.296;25.290;2023-02-21T11:22:34;2.30;;;2.17;;
24613;SDS011;12760;46.296;25.290;2023-02-21T11:28:17;6.47;;;4.25;;
24613;SDS011;12760;46.296;25.290;2023-02-21T11:33:46;16.83;;;4.88;;
24613;SDS011;12760;46.296;25.290;2023-02-21T11:36:27;1.52;;;1.52;;
24613;SDS011;12760;46.296;25.290;2023-02-21T11:41:38;3.53;;;2.85;;
24613;SDS011;12760;46.296;25.290;2023-02-21T11:44:32;1.90;;;1.90;;
24613;SDS011;12760;46.296;25.290;2023-02-21T11:47:06;2.17;;;2.08;;
24613;SDS011;12760;46.296;25.290;2023-02-21T11:52:38;1.73;;;1.65;;
24613;SDS011;12760;46.296;25.290;2023-02-21T11:55:14;2.20;;;2.10;;
24613;SDS011;12760;46.296;25.290;2023-02-21T11:58:00;1.25;;;1.25;;
24613;SDS011;12760;46.296;25.290;2023-02-21T12:03:49;26.77;;;2.88;;
24613;SDS011;12760;46.296;25.290;2023-02-21T12:30:43;2.30;;;2.20;;
24613;SDS011;12760;46.296;25.290;2023-02-21T12:39:30;3.97;;;3.63;;
24613;SDS011;12760;46.296;25.290;2023-02-21T12:44:30;3.33;;;3.05;;
24613;SDS011;12760;46.296;25.290;2023-02-21T12:47:06;4.43;;;4.15;;
24613;SDS011;12760;46.296;25.290;2023-02-21T12:49:49;1.30;;;1.30;;
24613;SDS011;12760;46.296;25.290;2023-02-21T12:52:26;3.05;;;2.85;;
24613;SDS011;12760;46.296;25.290;2023-02-21T13:00:27;3.47;;;3.38;;
24613;SDS011;12760;46.296;25.290;2023-02-21T13:14:32;2.67;;;2.58;;
24613;SDS011;12760;46.296;25.290;2023-02-21T13:17:09;1.52;;;1.52;;
24613;SDS011;12760;46.296;25.290;2023-02-21T13:28:49;1.88;;;1.88;;
24613;SDS011;12760;46.296;25.290;2023-02-21T13:31:27;3.10;;;2.92;;
24613;SDS011;12760;46.296;25.290;2023-02-21T13:34:02;2.65;;;2.55;;
24613;SDS011;12760;46.296;25.290;2023-02-21T13:36:40;15.77;;;4.55;;
24613;SDS011;12760;46.296;25.290;2023-02-21T13:41:34;1.48;;;1.48;;
24613;SDS011;12760;46.296;25.290;2023-02-21T13:44:07;7.00;;;4.15;;
24613;SDS011;12760;46.296;25.290;2023-02-21T13:49:35;1.85;;;1.85;;
24613;SDS011;12760;46.296;25.290;2023-02-21T13:57:40;1.42;;;1.42;;
24613;SDS011;12760;46.296;25.290;2023-02-21T14:05:20;15.10;;;4.68;;
24613;SDS011;12760;46.296;25.290;2023-02-21T14:07:47;5.93;;;2.65;;
24613;SDS011;12760;46.296;25.290;2023-02-21T14:13:19;1.73;;;1.73;;
24613;SDS011;12760;46.296;25.290;2023-02-21T14:15:46;3.25;;;2.97;;
24613;SDS011;12760;46.296;25.290;2023-02-21T14:21:21;1.10;;;1.10;;
24613;SDS011;12760;46.296;25.290;2023-02-21T14:24:05;8.98;;;4.07;;
24613;SDS011;12760;46.296;25.290;2023-02-21T14:27:00;2.42;;;2.22;;
24613;SDS011;12760;46.296;25.290;2023-02-21T14:29:31;27.48;;;5.65;;
24613;SDS011;12760;46.296;25.290;2023-02-21T14:34:37;2.95;;;2.85;;
24613;SDS011;12760;46.296;25.290;2023-02-21T14:37:15;1.08;;;1.08;;
24613;SDS011;12760;46.296;25.290;2023-02-21T14:39:48;3.50;;;3.30;;
24613;SDS011;12760;46.296;25.290;2023-02-21T14:53:16;1.15;;;1.15;;
24613;SDS011;12760;46.296;25.290;2023-02-21T14:56:22;1.40;;;1.40;;
24613;SDS011;12760;46.296;25.290;2023-02-21T14:59:31;2.92;;;2.80;;
24613;SDS011;12760;46.296;25.290;2023-02-21T15:05:13;1.10;;;1.10;;
24613;SDS011;12760;46.296;25.290;2023-02-21T15:12:46;1.40;;;1.40;;
24613;SDS011;12760;46.296;25.290;2023-02-21T15:15:22;1.58;;;1.58;;
24613;SDS011;12760;46.296;25.290;2023-02-21T15:18:34;1.80;;;1.80;;
24613;SDS011;12760;46.296;25.290;2023-02-21T15:23:34;4.53;;;3.15;;
24613;SDS011;12760;46.296;25.290;2023-02-21T15:26:15;1.98;;;1.92;;
24613;SDS011;12760;46.296;25.290;2023-02-21T15:28:42;2.13;;;1.52;;
24613;SDS011;12760;46.296;25.290;2023-02-21T15:31:08;1.55;;;1.55;;
24613;SDS011;12760;46.296;25.290;2023-02-21T15:33:40;1.70;;;1.70;;
24613;SDS011;12760;46.296;25.290;2023-02-21T15:36:12;1.25;;;1.25;;
24613;SDS011;12760;46.296;25.290;2023-02-21T15:38:44;4.47;;;3.90;;
24613;SDS011;12760;46.296;25.290;2023-02-21T15:46:42;2.35;;;2.25;;
24613;SDS011;12760;46.296;25.290;2023-02-21T15:52:25;4.43;;;4.07;;
24613;SDS011;12760;46.296;25.290;2023-02-21T15:55:36;1.48;;;1.48;;
24613;SDS011;12760;46.296;25.290;2023-02-21T15:57:46;10.95;;;3.72;;
24613;SDS011;12760;46.296;25.290;2023-02-21T16:00:25;1.65;;;1.65;;
24613;SDS011;12760;46.296;25.290;2023-02-21T16:02:52;2.38;;;2.28;;
24613;SDS011;12760;46.296;25.290;2023-02-21T16:05:37;2.80;;;2.70;;
24613;SDS011;12760;46.296;25.290;2023-02-21T16:08:03;6.00;;;5.47;;
24613;SDS011;12760;46.296;25.290;2023-02-21T16:10:29;2.03;;;2.00;;
24613;SDS011;12760;46.296;25.290;2023-02-21T16:12:59;35.92;;;4.38;;
24613;SDS011;12760;46.296;25.290;2023-02-21T16:17:56;19.52;;;8.98;;
24613;SDS011;12760;46.296;25.290;2023-02-21T16:20:26;5.57;;;5.13;;
24613;SDS011;12760;46.296;25.290;2023-02-21T16:28:33;11.57;;;7.05;;
24613;SDS011;12760;46.296;25.290;2023-02-21T16:31:00;12.63;;;5.90;;
24613;SDS011;12760;46.296;25.290;2023-02-21T16:33:28;11.15;;;6.43;;
24613;SDS011;12760;46.296;25.290;2023-02-21T16:35:54;10.93;;;7.47;;
24613;SDS011;12760;46.296;25.290;2023-02-21T16:38:21;10.98;;;10.07;;
24613;SDS011;12760;46.296;25.290;2023-02-21T16:40:48;14.75;;;11.77;;
24613;SDS011;12760;46.296;25.290;2023-02-21T16:43:18;6.40;;;5.80;;
24613;SDS011;12760;46.296;25.290;2023-02-21T16:45:47;12.95;;;8.30;;
24613;SDS011;12760;46.296;25.290;2023-02-21T16:48:18;8.63;;;7.93;;
24613;SDS011;12760;46.296;25.290;2023-02-21T16:50:52;4.80;;;4.40;;
24613;SDS011;12760;46.296;25.290;2023-02-21T16:53:18;2.50;;;2.40;;
24613;SDS011;12760;46.296;25.290;2023-02-21T16:55:45;3.92;;;3.70;;
24613;SDS011;12760;46.296;25.290;2023-02-21T17:01:04;1.80;;;1.77;;
24613;SDS011;12760;46.296;25.290;2023-02-21T17:03:35;14.00;;;3.30;;
24613;SDS011;12760;46.296;25.290;2023-02-21T17:06:00;2.97;;;2.78;;
24613;SDS011;12760;46.296;25.290;2023-02-21T17:08:26;1.95;;;1.88;;
24613;SDS011;12760;46.296;25.290;2023-02-21T17:10:52;2.58;;;2.45;;
24613;SDS011;12760;46.296;25.290;2023-02-21T17:13:19;3.00;;;2.90;;
24613;SDS011;12760;46.296;25.290;2023-02-21T17:15:45;3.83;;;3.50;;
24613;SDS011;12760;46.296;25.290;2023-02-21T17:18:11;1.63;;;1.63;;
24613;SDS011;12760;46.296;25.290;2023-02-21T17:20:37;3.70;;;3.40;;
24613;SDS011;12760;46.296;25.290;2023-02-21T17:23:03;8.35;;;7.22;;
24613;SDS011;12760;46.296;25.290;2023-02-21T17:25:28;3.45;;;3.13;;
24613;SDS011;12760;46.296;25.290;2023-02-21T17:27:54;6.45;;;5.97;;
24613;SDS011;12760;46.296;25.290;2023-02-21T17:30:21;5.97;;;4.53;;
24613;SDS011;12760;46.296;25.290;2023-02-21T17:32:49;3.65;;;3.38;;
24613;SDS011;12760;46.296;25.290;2023-02-21T17:35:15;5.55;;;5.25;;
24613;SDS011;12760;46.296;25.290;2023-02-21T17:37:43;9.73;;;7.35;;
24613;SDS011;12760;46.296;25.290;2023-02-21T17:40:11;7.68;;;5.18;;
24613;SDS011;12760;46.296;25.290;2023-02-21T17:42:38;3.40;;;3.20;;
24613;SDS011;12760;46.296;25.290;2023-02-21T17:45:04;3.53;;;3.38;;
24613;SDS011;12760;46.296;25.290;2023-02-21T17:47:31;8.00;;;7.32;;
24613;SDS011;12760;46.296;25.290;2023-02-21T17:49:57;35.08;;;9.82;;
24613;SDS011;12760;46.296;25.290;2023-02-21T17:52:24;8.75;;;7.90;;
24613;SDS011;12760;46.296;25.290;2023-02-21T17:54:51;10.20;;;9.35;;
24613;SDS011;12760;46.296;25.290;2023-02-21T17:57:17;19.58;;;9.93;;
24613;SDS011;12760;46.296;25.290;2023-02-21T17:59:43;11.50;;;8.43;;
24613;SDS011;12760;46.296;25.290;2023-02-21T18:02:09;10.35;;;9.40;;